Time;durP1;ratioP1;P1;durP2;ratioP2;P2;SDS_P1;SDS_P2;PMS_P1;PMS_P2;Temp;Humidity;BMP_temperature;BMP_pressure;BME280_temperature;BME280_humidity;BME280_pressure;Samples;Min_cycle;Max_cycle;Signal;HPM_P1;HPM_P2
2022/01/20 00:00:40;;;;;;;;;32.25;30.75;;;;;8.33;100.00;102567.66;5037822;28;45271;-80
2022/01/20 00:03:13;;;;;;;;;30.50;27.75;;;;;8.32;100.00;102570.09;5037991;28;45368;-80
2022/01/20 00:08:37;;;;;;;;;32.00;27.00;;;;;8.19;100.00;102582.00;5037380;28;45459;-80
2022/01/20 00:27:33;;;;;;;;;31.50;28.25;;;;;8.19;100.00;102569.13;5037793;28;45677;-80
2022/01/20 00:32:58;;;;;;;;;27.75;25.00;;;;;8.19;100.00;102574.28;5036962;28;45458;-79
2022/01/20 00:35:29;;;;;;;;;25.50;22.00;;;;;8.19;100.00;102570.78;5037218;28;45325;-79
2022/01/20 00:37:55;;;;;;;;;29.00;25.00;;;;;8.20;100.00;102568.34;5037230;28;45382;-80
2022/01/20 00:40:21;;;;;;;;;25.25;21.00;;;;;8.21;100.00;102562.38;5037162;28;46077;-80
2022/01/20 00:42:47;;;;;;;;;26.50;18.75;;;;;8.20;100.00;102557.09;5036804;28;45889;-81
2022/01/20 00:45:13;;;;;;;;;21.50;21.50;;;;;8.21;100.00;102561.47;5037064;28;45354;-80
2022/01/20 00:47:39;;;;;;;;;22.75;21.25;;;;;8.21;100.00;102556.31;5037594;28;45632;-80
2022/01/20 00:50:10;;;;;;;;;26.25;20.50;;;;;8.21;100.00;102562.38;5036987;28;45373;-80
2022/01/20 00:52:36;;;;;;;;;24.75;20.75;;;;;8.22;100.00;102563.28;5037232;28;45932;-80
2022/01/20 00:55:04;;;;;;;;;23.75;23.75;;;;;8.21;100.00;102562.38;5018810;28;45366;-80
2022/01/20 00:57:30;;;;;;;;;23.00;21.75;;;;;8.21;100.00;102558.91;5037206;28;45248;-81
2022/01/20 00:59:56;;;;;;;;;25.25;19.00;;;;;8.20;100.00;102562.25;5036321;28;45328;-81
2022/01/20 01:02:22;;;;;;;;;19.75;19.75;;;;;8.20;100.00;102558.03;5036681;28;45501;-81
2022/01/20 01:04:48;;;;;;;;;21.75;18.00;;;;;8.21;100.00;102566.66;5036067;28;45518;-80
2022/01/20 01:07:49;;;;;;;;;28.25;24.00;;;;;8.19;100.00;102563.94;5036768;28;45382;-80
2022/01/20 01:10:08;;;;;;;;;28.75;25.00;;;;;8.17;100.00;102569.72;5032723;28;45765;-81
2022/01/20 01:15:19;;;;;;;;;23.50;23.50;;;;;8.14;100.00;102575.56;5036369;28;45379;-80
2022/01/20 01:20:33;;;;;;;;;25.25;21.25;;;;;8.11;100.00;102582.13;5036381;28;45363;-80
2022/01/20 01:22:58;;;;;;;;;23.25;18.75;;;;;8.10;100.00;102591.53;5036072;28;45923;-80
2022/01/20 01:25:24;;;;;;;;;26.00;24.75;;;;;8.08;100.00;102602.50;5018086;28;45560;-80
2022/01/20 01:27:50;;;;;;;;;26.75;22.25;;;;;8.05;100.00;102603.16;5018659;28;45366;-80
2022/01/20 01:30:22;;;;;;;;;33.00;26.25;;;;;8.02;100.00;102614.13;5036049;28;45995;-80
2022/01/20 01:32:53;;;;;;;;;24.25;23.25;;;;;7.97;100.00;102614.53;5035790;28;45271;-80
2022/01/20 01:35:22;;;;;;;;;30.50;24.75;;;;;7.97;100.00;102623.16;5036308;28;45446;-80
2022/01/20 01:40:22;;;;;;;;;22.00;21.50;;;;;7.90;100.00;102618.25;5036115;28;45339;-80
2022/01/20 01:42:51;;;;;;;;;24.75;21.00;;;;;7.88;100.00;102620.69;5035996;28;45243;-80
2022/01/20 01:45:33;;;;;;;;;28.75;23.50;;;;;7.86;100.00;102614.53;5018276;28;45446;-80
2022/01/20 01:48:00;;;;;;;;;26.00;24.25;;;;;7.84;100.00;102610.91;5036234;28;45441;-81
2022/01/20 01:50:26;;;;;;;;;21.00;20.50;;;;;7.85;100.00;102611.78;5018553;28;46397;-80
2022/01/20 01:52:53;;;;;;;;;23.75;18.75;;;;;7.84;100.00;102640.91;5035706;28;45414;-81
2022/01/20 01:55:19;;;;;;;;;19.00;18.75;;;;;7.83;100.00;102649.47;5035771;28;45377;-80
2022/01/20 01:57:46;;;;;;;;;15.00;13.50;;;;;7.79;100.00;102653.41;5035812;28;45296;-80
2022/01/20 02:00:12;;;;;;;;;22.25;19.50;;;;;7.75;100.00;102651.38;5035691;28;46308;-80
2022/01/20 02:02:39;;;;;;;;;20.25;17.00;;;;;7.73;100.00;102666.69;5036159;28;45748;-81
2022/01/20 02:05:06;;;;;;;;;25.50;19.75;;;;;7.72;100.00;102664.88;5017784;28;45646;-80
2022/01/20 02:08:02;;;;;;;;;20.50;17.50;;;;;7.71;100.00;102659.59;5017972;28;45452;-81
2022/01/20 02:18:42;;;;;;;;;21.25;16.25;;;;;7.56;100.00;102669.50;5035977;28;45754;-81
2022/01/20 02:21:08;;;;;;;;;23.50;17.00;;;;;7.50;100.00;102666.41;5036100;28;46574;-81
2022/01/20 02:23:34;;;;;;;;;23.25;17.00;;;;;7.44;100.00;102661.59;5017356;28;45394;-80
2022/01/20 02:26:00;;;;;;;;;17.75;16.25;;;;;7.42;100.00;102674.34;5017425;28;45447;-81
2022/01/20 02:28:27;;;;;;;;;21.00;18.50;;;;;7.40;100.00;102668.13;5035195;28;45463;-80
2022/01/20 02:30:54;;;;;;;;;23.25;17.25;;;;;7.38;100.00;102674.84;5034882;28;45377;-80
2022/01/20 02:33:22;;;;;;;;;15.75;14.50;;;;;7.37;100.00;102673.03;5035580;28;45911;-80
2022/01/20 02:35:58;;;;;;;;;8.25;4.00;;;;;7.36;100.00;102672.88;5035237;28;45438;-81
2022/01/20 02:38:32;;;;;;;;;15.50;13.00;;;;;7.33;100.00;102681.25;5035589;28;45283;-81
2022/01/20 02:46:28;;;;;;;;;18.50;15.75;;;;;7.30;100.00;102662.94;5035380;28;45352;-79
2022/01/20 02:48:54;;;;;;;;;15.50;15.50;;;;;7.31;100.00;102649.28;5035741;28;45339;-80
2022/01/20 02:51:19;;;;;;;;;19.00;16.25;;;;;7.29;100.00;102658.56;5034935;28;46009;-81
2022/01/20 02:53:45;;;;;;;;;14.50;11.25;;;;;7.29;100.00;102653.41;5034989;28;45454;-80
2022/01/20 02:56:10;;;;;;;;;15.75;15.50;;;;;7.27;100.00;102653.28;5035218;28;45314;-79
2022/01/20 02:58:36;;;;;;;;;18.75;16.75;;;;;7.28;100.00;102646.47;5035639;28;45251;-81
2022/01/20 03:01:03;;;;;;;;;14.50;14.50;;;;;7.30;100.00;102659.47;5035066;28;45441;-80
2022/01/20 03:03:28;;;;;;;;;13.00;10.75;;;;;7.27;100.00;102661.00;5035152;28;45244;-81
2022/01/20 03:05:54;;;;;;;;;19.00;15.75;;;;;7.26;100.00;102654.06;5034633;28;45327;-81
2022/01/20 03:08:19;;;;;;;;;23.75;17.00;;;;;7.22;100.00;102649.41;5035379;28;45232;-81
2022/01/20 03:10:46;;;;;;;;;18.25;16.25;;;;;7.19;100.00;102655.94;5034508;28;46033;-80
2022/01/20 03:13:12;;;;;;;;;16.25;16.25;;;;;7.13;100.00;102664.94;5034986;28;45949;-80
2022/01/20 03:15:38;;;;;;;;;10.00;9.00;;;;;7.10;100.00;102674.97;5036096;28;45444;-80
2022/01/20 03:18:05;;;;;;;;;17.50;15.00;;;;;7.09;100.00;102675.75;5035012;28;45659;-81
2022/01/20 03:20:32;;;;;;;;;17.25;14.75;;;;;7.08;100.00;102681.66;5034561;28;45557;-80
2022/01/20 03:22:59;;;;;;;;;14.50;12.00;;;;;7.06;100.00;102679.72;5034795;28;45246;-81
2022/01/20 03:25:25;;;;;;;;;17.75;12.25;;;;;7.02;100.00;102687.97;5037894;28;45279;-81
2022/01/20 03:27:50;;;;;;;;;16.25;13.25;;;;;6.99;100.00;102688.56;5038253;28;45331;-80
2022/01/20 03:30:16;;;;;;;;;13.75;13.75;;;;;6.95;100.00;102687.38;5037856;28;45743;-80
2022/01/20 03:32:42;;;;;;;;;15.50;14.25;;;;;6.90;100.00;102678.38;5037852;28;45439;-80
2022/01/20 03:35:08;;;;;;;;;15.25;15.00;;;;;6.89;100.00;102688.50;5020521;28;45293;-80
2022/01/20 03:37:35;;;;;;;;;15.00;14.00;;;;;6.84;100.00;102689.78;5038316;28;45597;-81
2022/01/20 03:40:00;;;;;;;;;15.00;13.00;;;;;6.82;100.00;102690.53;5037616;28;45371;-81
2022/01/20 03:42:26;;;;;;;;;19.50;16.00;;;;;6.80;100.00;102680.88;5038117;28;45254;-81
2022/01/20 03:44:52;;;;;;;;;22.75;20.00;;;;;6.79;100.00;102682.53;5038246;28;45461;-80
2022/01/20 03:47:19;;;;;;;;;19.00;19.00;;;;;6.77;100.00;102696.03;5038473;28;45482;-80
2022/01/20 03:52:27;;;;;;;;;19.00;17.00;;;;;6.66;100.00;102700.19;5037703;28;45485;-81
2022/01/20 03:54:53;;;;;;;;;19.25;19.00;;;;;6.63;100.00;102698.25;5037620;28;45244;-80
2022/01/20 03:57:19;;;;;;;;;20.00;15.75;;;;;6.62;100.00;102703.28;5038117;28;45219;-81
2022/01/20 03:59:45;;;;;;;;;22.00;18.00;;;;;6.61;100.00;102704.03;5037437;28;45916;-80
2022/01/20 04:02:11;;;;;;;;;19.75;15.25;;;;;6.61;100.00;102704.03;5019683;28;45364;-80
2022/01/20 04:04:36;;;;;;;;;18.25;14.25;;;;;6.64;100.00;102712.94;5020077;28;45430;-81
2022/01/20 04:07:05;;;;;;;;;20.50;18.00;;;;;6.62;100.00;102711.88;5019640;28;45425;-80
2022/01/20 04:09:31;;;;;;;;;19.75;18.25;;;;;6.64;100.00;102719.78;5037380;28;45328;-80
2022/01/20 04:11:56;;;;;;;;;19.25;18.25;;;;;6.62;100.00;102714.47;5036855;28;45913;-80
2022/01/20 04:14:24;;;;;;;;;19.00;18.00;;;;;6.60;100.00;102715.97;5037753;28;45225;-80
2022/01/20 04:19:23;;;;;;;;;19.00;14.50;;;;;6.54;100.00;102715.44;5036090;28;45628;-80
2022/01/20 04:21:49;;;;;;;;;19.75;16.25;;;;;6.54;100.00;102727.38;5037079;28;45318;-80
2022/01/20 04:24:15;;;;;;;;;15.75;15.75;;;;;6.50;100.00;102723.63;5037481;28;45193;-80
2022/01/20 04:26:43;;;;;;;;;18.50;16.00;;;;;6.48;100.00;102722.56;5037124;28;45515;-79
2022/01/20 04:29:11;;;;;;;;;17.00;16.25;;;;;6.47;100.00;102718.22;5037273;28;45415;-79
2022/01/20 04:31:38;;;;;;;;;17.00;14.00;;;;;6.45;100.00;102720.63;5037310;28;45223;-80
2022/01/20 04:34:05;;;;;;;;;13.50;12.25;;;;;6.44;100.00;102723.06;5036593;28;45348;-79
2022/01/20 04:36:38;;;;;;;;;15.75;11.50;;;;;6.45;100.00;102723.19;5038696;28;45652;-80
2022/01/20 04:39:08;;;;;;;;;12.25;12.25;;;;;6.41;100.00;102725.34;5019423;28;47514;-79
2022/01/20 04:41:35;;;;;;;;;14.00;12.25;;;;;6.38;100.00;102737.91;5037560;28;45347;-80
2022/01/20 04:44:02;;;;;;;;;13.00;9.00;;;;;6.32;100.00;102726.31;5036834;28;45370;-80
2022/01/20 04:46:41;;;;;;;;;15.00;12.25;;;;;6.32;100.00;102740.81;5037384;28;45521;-80
2022/01/20 04:57:21;;;;;;;;;9.25;9.00;;;;;6.34;100.00;102757.31;5036852;28;45445;-81
2022/01/20 04:59:55;;;;;;;;;12.00;9.50;;;;;6.35;100.00;102747.19;5036380;28;45457;-81
2022/01/20 05:02:25;;;;;;;;;13.50;11.75;;;;;6.34;100.00;102750.53;5024991;28;45542;-81
2022/01/20 05:04:51;;;;;;;;;14.50;10.50;;;;;6.33;100.00;102742.63;5016512;28;45293;-81
2022/01/20 05:07:26;;;;;;;;;10.75;9.00;;;;;6.35;100.00;102735.97;5016950;28;45614;-81
2022/01/20 05:09:54;;;;;;;;;14.50;12.00;;;;;6.35;100.00;102731.75;5016657;28;45387;-81
2022/01/20 05:12:26;;;;;;;;;16.75;10.25;;;;;6.35;100.00;102735.97;5016709;28;45962;-81
2022/01/20 05:14:51;;;;;;;;;12.50;12.00;;;;;6.33;100.00;102727.19;4998542;28;45433;-81
2022/01/20 05:17:17;;;;;;;;;10.75;10.50;;;;;6.31;100.00;102742.50;5016716;28;45229;-80
2022/01/20 05:19:42;;;;;;;;;16.50;13.00;;;;;6.29;100.00;102731.16;5016149;28;46006;-80
2022/01/20 05:22:08;;;;;;;;;9.50;8.50;;;;;6.28;100.00;102739.63;5016702;28;45242;-80
2022/01/20 05:24:34;;;;;;;;;11.00;9.50;;;;;6.27;100.00;102744.66;5016474;28;45248;-81
2022/01/20 05:26:59;;;;;;;;;13.50;12.25;;;;;6.26;100.00;102745.41;5016344;28;45777;-81
2022/01/20 05:29:25;;;;;;;;;16.25;14.00;;;;;6.23;100.00;102742.53;5015959;28;45337;-80
2022/01/20 05:31:52;;;;;;;;;13.00;12.00;;;;;6.22;100.00;102748.44;5015604;28;45218;-81
2022/01/20 05:34:18;;;;;;;;;12.75;9.75;;;;;6.22;100.00;102749.38;5016270;28;45415;-80
2022/01/20 05:36:47;;;;;;;;;15.75;14.50;;;;;6.21;100.00;102756.94;5016233;28;45515;-80
2022/01/20 05:39:12;;;;;;;;;15.50;11.75;;;;;6.21;100.00;102764.66;5015949;28;46361;-80
2022/01/20 05:41:38;;;;;;;;;12.00;8.75;;;;;6.21;100.00;102759.53;5016456;28;45273;-80
2022/01/20 05:44:04;;;;;;;;;17.75;10.00;;;;;6.20;100.00;102766.31;5015843;28;45294;-80
2022/01/20 05:46:36;;;;;;;;;16.25;9.00;;;;;6.22;100.00;102775.09;5015795;28;45340;-80
2022/01/20 05:49:08;;;;;;;;;7.25;6.75;;;;;6.23;100.00;102775.97;5015780;28;46301;-80
2022/01/20 05:51:39;;;;;;;;;8.75;8.00;;;;;6.24;100.00;102780.38;5015967;28;45850;-80
2022/01/20 05:54:05;;;;;;;;;10.75;8.00;;;;;6.23;100.00;102774.34;5006550;28;45286;-80
2022/01/20 05:56:31;;;;;;;;;14.25;9.75;;;;;6.22;100.00;102784.44;5036210;28;45640;-80
2022/01/20 05:58:57;;;;;;;;;9.50;9.00;;;;;6.19;100.00;102785.06;5017803;28;45807;-80
2022/01/20 06:01:23;;;;;;;;;11.00;9.00;;;;;6.16;100.00;102790.84;5035112;28;45335;-80
2022/01/20 06:03:48;;;;;;;;;8.50;7.00;;;;;6.11;100.00;102789.50;5035273;28;45573;-80
2022/01/20 06:06:14;;;;;;;;;8.50;7.00;;;;;6.07;100.00;102783.91;5018024;28;45440;-79
2022/01/20 06:08:41;;;;;;;;;5.75;5.75;;;;;6.02;100.00;102791.19;5034307;28;45677;-79
2022/01/20 06:11:08;;;;;;;;;9.75;7.75;;;;;5.98;100.00;102789.97;5035991;28;45810;-80
2022/01/20 06:13:34;;;;;;;;;12.25;8.00;;;;;5.98;100.00;102783.94;5035720;28;45248;-81
2022/01/20 06:16:00;;;;;;;;;14.00;9.00;;;;;5.94;100.00;102795.56;5035652;28;45227;-80
2022/01/20 06:18:26;;;;;;;;;7.75;7.75;;;;;5.88;100.00;102792.41;5035697;28;45576;-80
2022/01/20 06:20:53;;;;;;;;;10.25;7.25;;;;;5.84;100.00;102792.88;5035408;28;45504;-80
2022/01/20 06:23:19;;;;;;;;;8.00;6.75;;;;;5.81;100.00;102790.03;5035915;28;45289;-81
2022/01/20 06:25:46;;;;;;;;;10.50;8.25;;;;;5.80;100.00;102804.53;5035570;28;45599;-80
2022/01/20 06:28:13;;;;;;;;;12.00;8.00;;;;;5.77;100.00;102793.97;5035511;28;45278;-80
2022/01/20 06:30:40;;;;;;;;;8.50;7.00;;;;;5.77;100.00;102803.31;5035121;28;45371;-80
2022/01/20 06:33:06;;;;;;;;;10.00;8.00;;;;;5.77;100.00;102804.25;5035924;28;45253;-79
2022/01/20 06:35:32;;;;;;;;;11.25;8.50;;;;;5.73;100.00;102797.00;5034880;28;45300;-80
2022/01/20 06:37:58;;;;;;;;;11.00;7.00;;;;;5.71;100.00;102807.13;5035002;28;45461;-80
2022/01/20 06:40:24;;;;;;;;;8.75;7.50;;;;;5.70;100.00;102802.75;5025980;28;45304;-79
2022/01/20 06:42:49;;;;;;;;;9.50;8.25;;;;;5.69;100.00;102803.50;5023265;28;45388;-79
2022/01/20 06:45:17;;;;;;;;;8.25;8.00;;;;;5.69;100.00;102815.44;5027589;28;46062;-81
2022/01/20 06:47:43;;;;;;;;;16.75;7.75;;;;;5.64;100.00;102814.97;5006883;28;46355;-80
2022/01/20 06:50:11;;;;;;;;;6.75;6.75;;;;;5.58;100.00;102824.69;5034112;28;45294;-80
2022/01/20 06:52:38;;;;;;;;;11.75;6.75;;;;;5.53;100.00;102828.44;5035400;28;45363;-80
2022/01/20 06:55:07;;;;;;;;;6.00;6.00;;;;;5.50;100.00;102836.78;5014963;28;45570;-77
2022/01/20 06:57:35;;;;;;;;;9.00;7.00;;;;;5.51;100.00;102842.81;5036049;28;46029;-79
2022/01/20 07:00:01;;;;;;;;;11.50;9.25;;;;;5.52;100.00;102847.19;5040455;28;45873;-81
2022/01/20 07:02:28;;;;;;;;;10.25;8.00;;;;;5.53;100.00;102849.00;5038382;28;45420;-81
2022/01/20 07:04:53;;;;;;;;;11.75;8.75;;;;;5.52;100.00;102848.09;5023177;28;45333;-81
2022/01/20 07:07:19;;;;;;;;;14.00;11.00;;;;;5.55;100.00;102856.13;5031684;28;46066;-82
2022/01/20 07:09:45;;;;;;;;;13.00;12.00;;;;;5.57;100.00;102867.44;5033241;28;45334;-81
2022/01/20 07:12:11;;;;;;;;;11.25;7.50;;;;;5.62;100.00;102874.72;5028423;28;45291;-82
2022/01/20 07:14:38;;;;;;;;;12.25;9.75;;;;;5.65;100.00;102880.16;5010963;28;45449;-90
2022/01/20 07:17:04;;;;;;;;;16.75;12.75;;;;;5.66;100.00;102885.44;5032618;28;45443;-86
2022/01/20 07:19:30;;;;;;;;;13.00;12.00;;;;;5.69;100.00;102885.75;5032602;28;45788;-80
2022/01/20 07:21:56;;;;;;;;;9.75;9.75;;;;;5.76;100.00;102899.19;5037840;28;45414;-81
2022/01/20 07:24:21;;;;;;;;;16.25;12.25;;;;;5.76;100.00;102897.53;5030826;28;45565;-80
2022/01/20 07:26:47;;;;;;;;;11.25;9.50;;;;;5.79;100.00;102894.34;5032038;28;45725;-80
2022/01/20 07:29:12;;;;;;;;;11.50;10.75;;;;;5.80;100.00;102894.50;5016245;28;45393;-80
2022/01/20 07:31:38;;;;;;;;;11.50;9.50;;;;;5.80;100.00;102894.50;5035624;28;45517;-84
2022/01/20 07:34:06;;;;;;;;;8.75;7.50;;;;;5.79;100.00;102889.22;5030383;28;45365;-85
2022/01/20 07:36:32;;;;;;;;;11.75;11.50;;;;;5.82;100.00;102898.13;5040616;28;45656;-79
2022/01/20 07:38:58;;;;;;;;;15.50;11.50;;;;;5.87;100.00;102891.78;5022577;28;45190;-81
2022/01/20 07:41:23;;;;;;;;;7.00;6.00;;;;;5.91;100.00;102902.34;5024627;28;45408;-77
2022/01/20 07:43:49;;;;;;;;;10.75;9.00;;;;;5.95;100.00;102894.19;5028648;28;45622;-77
2022/01/20 07:46:15;;;;;;;;;9.00;7.25;;;;;5.98;100.00;102894.50;5022146;28;45752;-80
2022/01/20 07:48:41;;;;;;;;;14.25;11.00;;;;;6.00;100.00;102899.03;5005753;28;45470;-75
2022/01/20 07:51:06;;;;;;;;;8.50;8.00;;;;;6.03;100.00;102901.00;5028791;28;45491;-75
2022/01/20 07:53:33;;;;;;;;;12.00;7.00;;;;;6.03;100.00;102895.84;5002055;28;45575;-74
2022/01/20 07:55:59;;;;;;;;;10.50;9.00;;;;;6.06;100.00;102901.31;5036141;28;46119;-75
2022/01/20 07:58:25;;;;;;;;;9.00;8.00;;;;;6.07;100.00;102907.34;5024099;28;45495;-75
2022/01/20 08:00:50;;;;;;;;;6.50;6.50;;;;;6.10;100.00;102897.38;5026123;28;45406;-77
2022/01/20 08:03:16;;;;;;;;;9.75;6.50;;;;;6.14;100.00;102890.09;5032770;28;45497;-75
2022/01/20 08:05:42;;;;;;;;;10.50;7.25;;;;;6.18;100.00;102901.56;5017479;28;46065;-73
2022/01/20 08:08:08;;;;;;;;;11.00;7.50;;;;;6.24;100.00;102907.31;5004183;28;45327;-75
2022/01/20 08:10:35;;;;;;;;;7.75;7.75;;;;;6.28;100.00;102908.53;5028216;28;45510;-79
2022/01/20 08:13:04;;;;;;;;;8.00;7.25;;;;;6.25;100.00;102896.28;5026963;28;45502;-77
2022/01/20 08:15:30;;;;;;;;;7.75;7.50;;;;;6.25;100.00;102901.44;5020885;28;45373;-77
2022/01/20 08:17:56;;;;;;;;;12.00;8.00;;;;;6.23;100.00;102905.50;5027121;28;45332;-81
2022/01/20 08:20:21;;;;;;;;;7.75;6.75;;;;;6.21;100.00;102907.03;5020836;28;45380;-81
2022/01/20 08:22:47;;;;;;;;;13.00;9.25;;;;;6.21;100.00;102904.44;5037069;28;46334;-82
2022/01/20 08:25:18;;;;;;;;;11.00;7.00;;;;;6.17;100.00;102910.97;5038362;28;46512;-85
2022/01/20 08:27:46;;;;;;;;;12.00;8.75;;;;;6.15;100.00;102899.63;5037405;28;45830;-80
2022/01/20 08:30:15;;;;;;;;;10.25;6.25;;;;;6.15;100.00;102907.34;5031406;28;45443;-82
2022/01/20 08:32:42;;;;;;;;;9.50;7.50;;;;;6.15;100.00;102906.44;5030569;28;45423;-80
2022/01/20 08:35:09;;;;;;;;;8.00;6.25;;;;;6.21;100.00;102906.13;5038011;28;45401;-82
2022/01/20 08:37:37;;;;;;;;;8.75;8.50;;;;;6.23;100.00;102913.22;5031977;28;45434;-81
2022/01/20 08:40:05;;;;;;;;;11.25;9.00;;;;;6.24;100.00;102902.19;5027531;28;45445;-80
2022/01/20 08:42:32;;;;;;;;;9.25;7.50;;;;;6.23;100.00;102907.16;5028661;28;45194;-85
2022/01/20 08:44:57;;;;;;;;;12.00;7.75;;;;;6.25;100.00;102911.72;5037481;28;45415;-80
2022/01/20 08:47:23;;;;;;;;;10.75;8.00;;;;;6.32;100.00;102914.09;5034647;28;46584;-78
2022/01/20 08:49:50;;;;;;;;;9.25;9.25;;;;;6.37;100.00;102922.25;5029939;28;45383;-79
2022/01/20 08:52:18;;;;;;;;;14.75;11.75;;;;;6.42;100.00;102923.63;5035536;28;45542;-79
2022/01/20 08:54:47;;;;;;;;;13.00;9.25;;;;;6.47;100.00;102918.91;5016592;28;46083;-78
2022/01/20 08:57:16;;;;;;;;;13.50;10.50;;;;;6.49;100.00;102910.56;4999334;28;45866;-80
2022/01/20 08:59:42;;;;;;;;;11.75;11.25;;;;;6.52;100.00;102906.50;5027508;28;45521;-77
2022/01/20 09:02:11;;;;;;;;;16.50;14.00;;;;;6.59;100.00;102914.91;5029264;28;45467;-78
2022/01/20 09:04:38;;;;;;;;;13.25;11.75;;;;;6.61;100.00;102909.94;5025260;28;45454;-78
2022/01/20 09:07:04;;;;;;;;;12.00;11.75;;;;;6.60;100.00;102918.41;5023887;28;45908;-79
2022/01/20 09:09:30;;;;;;;;;14.75;13.25;;;;;6.58;100.00;102915.72;5007398;28;45454;-78
2022/01/20 09:12:16;;;;;;;;;11.50;11.50;;;;;6.57;100.00;102920.69;5018869;28;45508;-78
2022/01/20 09:17:30;;;;;;;;;18.25;14.00;;;;;6.60;100.00;102919.31;5035500;28;45304;-78
2022/01/20 09:19:58;;;;;;;;;17.25;13.75;;;;;6.64;100.00;102915.38;5024415;28;45463;-81
2022/01/20 09:22:26;;;;;;;;;15.25;14.00;;;;;6.71;100.00;102924.56;5027472;28;45556;-81
2022/01/20 09:24:52;;;;;;;;;22.25;16.50;;;;;6.75;100.00;102942.13;5008344;28;47040;-80
2022/01/20 09:27:18;;;;;;;;;23.00;15.00;;;;;6.79;100.00;102949.38;5023491;28;45229;-76
2022/01/20 09:29:45;;;;;;;;;14.75;14.75;;;;;6.81;100.00;102953.91;5029678;28;45309;-83
2022/01/20 09:32:13;;;;;;;;;15.00;14.75;;;;;6.85;100.00;102960.25;5028672;28;45449;-79
2022/01/20 09:34:40;;;;;;;;;20.75;14.25;;;;;6.86;100.00;102968.91;5035933;28;46191;-79
2022/01/20 09:37:06;;;;;;;;;18.00;16.50;;;;;6.90;100.00;102963.25;5023279;28;45463;-78
2022/01/20 09:39:31;;;;;;;;;16.50;14.50;;;;;6.94;100.00;102962.81;5036560;28;45478;-81
2022/01/20 09:41:58;;;;;;;;;19.50;16.50;;;;;7.01;100.00;102961.72;5036614;28;45244;-81
2022/01/20 09:44:25;;;;;;;;;16.50;15.75;;;;;7.07;100.00;102957.13;5017007;28;45950;-81
2022/01/20 09:46:51;;;;;;;;;15.00;14.00;;;;;7.11;100.00;102967.84;5024220;28;45922;-80
2022/01/20 09:49:17;;;;;;;;;16.00;15.00;;;;;7.16;100.00;102957.09;5035337;28;45340;-78
2022/01/20 09:51:43;;;;;;;;;16.00;16.00;;;;;7.19;100.00;102953.13;5032211;28;45553;-77
2022/01/20 09:54:10;;;;;;;;;8.00;5.50;;;;;7.19;100.00;102945.41;5033072;28;45451;-77
2022/01/20 09:56:36;;;;;;;;;24.25;16.50;;;;;7.25;100.00;102956.25;5009981;28;45936;-77
2022/01/20 09:59:02;;;;;;;;;18.50;13.25;;;;;7.31;100.00;102957.59;5024953;28;45527;-77
2022/01/20 10:01:43;;;;;;;;;15.75;15.00;;;;;7.35;100.00;102957.09;5027238;28;45435;-78
2022/01/20 10:04:25;;;;;;;;;21.50;16.75;;;;;7.33;100.00;102959.56;5031658;28;45489;-80
2022/01/20 10:07:06;;;;;;;;;19.50;14.75;;;;;7.37;100.00;102960.75;5034842;28;45808;-83
2022/01/20 10:09:39;;;;;;;;;19.50;17.25;;;;;7.39;100.00;102967.88;5037144;28;45251;-81
2022/01/20 10:12:07;;;;;;;;;19.00;15.00;;;;;7.45;100.00;102972.66;5018903;28;45534;-81
2022/01/20 10:14:44;;;;;;;;;18.50;16.50;;;;;7.51;100.00;102969.72;5022710;28;47164;-85
2022/01/20 10:17:21;;;;;;;;;15.00;15.00;;;;;7.53;100.00;102978.53;5020438;28;45833;-83
2022/01/20 10:19:51;;;;;;;;;24.50;18.00;;;;;7.62;100.00;102988.78;5018281;28;45352;-83
2022/01/20 10:22:22;;;;;;;;;17.75;15.25;;;;;7.66;100.00;102988.31;5025936;28;45529;-84
2022/01/20 10:25:04;;;;;;;;;18.25;16.00;;;;;7.65;100.00;102981.34;5029936;28;45602;-82
2022/01/20 10:27:33;;;;;;;;;18.25;13.25;;;;;7.73;100.00;103001.00;5035019;28;45575;-79
2022/01/20 10:30:06;;;;;;;;;16.25;13.75;;;;;7.75;100.00;102997.78;5035859;28;45390;-80
2022/01/20 10:32:43;;;;;;;;;19.75;15.50;;;;;7.74;100.00;102995.06;5024283;28;45352;-87
2022/01/20 10:35:10;;;;;;;;;25.50;16.75;;;;;7.75;100.00;103004.63;5029893;28;45374;-86
2022/01/20 10:37:38;;;;;;;;;16.75;16.25;;;;;7.75;100.00;102992.63;5033857;28;45823;-85
2022/01/20 10:40:15;;;;;;;;;20.75;13.75;;;;;7.83;100.00;102998.50;5026881;28;45241;-84
2022/01/20 10:42:44;;;;;;;;;19.75;13.75;;;;;7.87;100.00;103004.81;5033393;28;45370;-83
2022/01/20 10:45:26;;;;;;;;;18.50;15.00;;;;;7.93;100.00;102997.66;5028856;28;45433;-79
2022/01/20 10:47:54;;;;;;;;;23.00;16.50;;;;;7.99;100.00;103003.38;5037300;28;45534;-79
2022/01/20 10:50:27;;;;;;;;;29.25;20.00;;;;;8.01;100.00;103006.06;5025818;28;45489;-78
2022/01/20 10:52:54;;;;;;;;;22.75;17.75;;;;;8.04;100.00;103004.69;5038535;28;45631;-80
2022/01/20 10:55:30;;;;;;;;;21.50;19.00;;;;;8.12;100.00;103005.38;5018045;28;46809;-81
2022/01/20 10:58:09;;;;;;;;;21.00;19.75;;;;;8.13;100.00;102998.56;5023140;28;45812;-78
2022/01/20 11:00:41;;;;;;;;;20.00;17.50;;;;;8.12;100.00;103007.94;5021571;28;45860;-78
2022/01/20 11:03:07;;;;;;;;;22.50;21.75;;;;;8.14;100.00;103002.94;5023115;28;45262;-78
2022/01/20 11:05:33;;;;;;;;;22.75;20.75;;;;;8.14;100.00;102998.69;5021817;28;45561;-79
2022/01/20 11:08:00;;;;;;;;;23.25;18.50;;;;;8.15;100.00;102999.59;5021659;28;45197;-81
2022/01/20 11:10:26;;;;;;;;;22.25;16.50;;;;;8.14;100.00;102998.69;5023794;28;45182;-81
2022/01/20 11:12:51;;;;;;;;;19.00;17.50;;;;;8.13;100.00;103003.72;5031846;28;45641;-81
2022/01/20 11:15:20;;;;;;;;;23.50;22.50;;;;;8.13;100.00;103001.13;5049685;28;45709;-78
2022/01/20 11:17:53;;;;;;;;;17.25;15.50;;;;;8.19;100.00;103001.69;5045520;28;45461;-78
2022/01/20 11:20:22;;;;;;;;;18.50;15.75;;;;;8.19;100.00;102992.28;5037441;28;45524;-77
2022/01/20 11:22:52;;;;;;;;;20.00;14.00;;;;;8.27;100.00;102994.63;5035149;28;45431;-81
2022/01/20 11:25:21;;;;;;;;;18.75;16.00;;;;;8.35;100.00;102991.97;5041501;28;46083;-80
2022/01/20 11:27:47;;;;;;;;;11.75;10.00;;;;;8.45;100.00;102997.94;5042835;28;45425;-76
2022/01/20 11:30:26;;;;;;;;;12.75;11.50;;;;;8.56;100.00;102989.50;5016134;28;45585;-76
2022/01/20 11:33:03;;;;;;;;;15.50;11.50;;;;;8.58;100.00;102976.72;5022588;28;45286;-81
2022/01/20 11:35:56;;;;;;;;;16.75;11.50;;;;;8.59;100.00;102987.19;5038207;28;45501;-81
2022/01/20 11:38:35;;;;;;;;;14.50;10.75;;;;;8.56;100.00;102983.44;5011693;28;45444;-83
2022/01/20 11:41:02;;;;;;;;;16.00;12.00;;;;;8.58;100.00;102977.66;5041652;28;45414;-82
2022/01/20 11:43:40;;;;;;;;;16.00;11.50;;;;;8.67;100.00;102986.19;5035706;28;45387;-77
2022/01/20 11:46:21;;;;;;;;;15.75;9.50;;;;;8.81;100.00;102989.06;5020345;28;45324;-78
2022/01/20 11:49:03;;;;;;;;;14.25;10.00;;;;;8.93;100.00;102984.97;5018486;28;45403;-76
2022/01/20 11:51:57;;;;;;;;;9.75;9.00;;;;;9.03;100.00;102989.25;5035834;28;45670;-76
2022/01/20 11:54:35;;;;;;;;;8.50;6.50;;;;;9.09;100.00;102979.44;5017985;28;45497;-81
2022/01/20 11:57:11;;;;;;;;;12.25;11.00;;;;;9.14;100.00;102985.00;4999834;28;45723;-80
2022/01/20 11:59:50;;;;;;;;;9.75;8.75;;;;;9.21;100.00;102989.03;5023961;28;45566;-80
2022/01/20 12:02:37;;;;;;;;;9.25;8.25;;;;;9.28;100.00;102989.69;5037736;28;45381;-82
2022/01/20 12:05:16;;;;;;;;;8.50;6.25;;;;;9.34;100.00;102985.81;5037490;28;45769;-89
2022/01/20 12:07:42;;;;;;;;;9.50;6.75;;;;;9.38;100.00;102985.28;5032299;28;45844;-81
2022/01/20 12:10:14;;;;;;;;;9.00;7.75;;;;;9.43;100.00;102984.91;5031967;28;45300;-77
2022/01/20 12:12:41;;;;;;;;;8.75;5.75;;;;;9.51;100.00;102990.72;5027186;28;45280;-76
2022/01/20 12:15:20;;;;;;;;;13.00;9.00;;;;;9.56;100.00;102988.53;5013755;28;45550;-77
2022/01/20 12:17:51;;;;;;;;;5.50;5.00;;;;;9.59;100.00;102993.97;5006887;28;46872;-77
2022/01/20 12:20:17;;;;;;;;;9.75;6.75;;;;;9.59;100.00;102989.69;5034431;28;45565;-76